sensor_id;sensor_type;location;lat;lon;timestamp;P1;durP1;ratioP1;P2;durP2;ratioP2
24557;SDS011;12726;49.148;8.582;2023-03-05T00:00:31;38.47;;;16.05;;
24557;SDS011;12726;49.148;8.582;2023-03-05T00:03:17;43.55;;;17.08;;
24557;SDS011;12726;49.148;8.582;2023-03-05T00:06:02;44.63;;;16.75;;
24557;SDS011;12726;49.148;8.582;2023-03-05T00:08:49;35.70;;;15.23;;
24557;SDS011;12726;49.148;8.582;2023-03-05T00:11:35;39.55;;;15.50;;
24557;SDS011;12726;49.148;8.582;2023-03-05T00:14:21;42.47;;;16.23;;
24557;SDS011;12726;49.148;8.582;2023-03-05T00:17:06;40.15;;;16.27;;
24557;SDS011;12726;49.148;8.582;2023-03-05T00:19:52;40.50;;;16.00;;
24557;SDS011;12726;49.148;8.582;2023-03-05T00:22:37;37.85;;;15.30;;
24557;SDS011;12726;49.148;8.582;2023-03-05T00:25:23;42.17;;;16.10;;
24557;SDS011;12726;49.148;8.582;2023-03-05T00:28:09;45.50;;;16.20;;
24557;SDS011;12726;49.148;8.582;2023-03-05T00:30:57;40.92;;;15.07;;
24557;SDS011;12726;49.148;8.582;2023-03-05T00:33:44;40.50;;;15.45;;
24557;SDS011;12726;49.148;8.582;2023-03-05T00:36:29;38.10;;;16.05;;
24557;SDS011;12726;49.148;8.582;2023-03-05T00:39:16;44.40;;;16.95;;
24557;SDS011;12726;49.148;8.582;2023-03-05T00:42:03;41.88;;;14.68;;
24557;SDS011;12726;49.148;8.582;2023-03-05T00:44:49;45.40;;;17.00;;
24557;SDS011;12726;49.148;8.582;2023-03-05T00:47:34;39.70;;;16.52;;
24557;SDS011;12726;49.148;8.582;2023-03-05T00:50:20;40.88;;;17.40;;
24557;SDS011;12726;49.148;8.582;2023-03-05T00:53:05;38.60;;;16.52;;
24557;SDS011;12726;49.148;8.582;2023-03-05T00:55:51;44.13;;;17.90;;
24557;SDS011;12726;49.148;8.582;2023-03-05T00:58:38;42.65;;;16.55;;
24557;SDS011;12726;49.148;8.582;2023-03-05T01:01:23;37.67;;;17.10;;
24557;SDS011;12726;49.148;8.582;2023-03-05T01:04:09;40.47;;;17.55;;
24557;SDS011;12726;49.148;8.582;2023-03-05T01:06:55;40.90;;;16.05;;
24557;SDS011;12726;49.148;8.582;2023-03-05T01:09:40;45.15;;;16.88;;
24557;SDS011;12726;49.148;8.582;2023-03-05T01:12:25;40.90;;;15.63;;
24557;SDS011;12726;49.148;8.582;2023-03-05T01:15:12;42.83;;;16.33;;
24557;SDS011;12726;49.148;8.582;2023-03-05T01:17:57;42.40;;;17.58;;
24557;SDS011;12726;49.148;8.582;2023-03-05T01:20:43;47.28;;;16.90;;
24557;SDS011;12726;49.148;8.582;2023-03-05T01:23:28;42.70;;;16.90;;
24557;SDS011;12726;49.148;8.582;2023-03-05T01:26:14;39.70;;;16.25;;
24557;SDS011;12726;49.148;8.582;2023-03-05T01:28:59;45.17;;;17.48;;
24557;SDS011;12726;49.148;8.582;2023-03-05T01:31:46;40.28;;;15.45;;
24557;SDS011;12726;49.148;8.582;2023-03-05T01:34:31;43.33;;;17.25;;
24557;SDS011;12726;49.148;8.582;2023-03-05T01:37:17;41.65;;;17.10;;
24557;SDS011;12726;49.148;8.582;2023-03-05T01:40:03;43.70;;;17.55;;
24557;SDS011;12726;49.148;8.582;2023-03-05T01:42:54;41.38;;;16.25;;
24557;SDS011;12726;49.148;8.582;2023-03-05T01:49:02;39.13;;;15.50;;
24557;SDS011;12726;49.148;8.582;2023-03-05T01:51:57;35.15;;;14.45;;
24557;SDS011;12726;49.148;8.582;2023-03-05T01:54:50;38.78;;;14.70;;
24557;SDS011;12726;49.148;8.582;2023-03-05T01:57:38;45.58;;;16.23;;
24557;SDS011;12726;49.148;8.582;2023-03-05T02:00:28;37.80;;;14.85;;
24557;SDS011;12726;49.148;8.582;2023-03-05T02:03:19;39.40;;;15.43;;
24557;SDS011;12726;49.148;8.582;2023-03-05T02:06:07;40.30;;;16.17;;
24557;SDS011;12726;49.148;8.582;2023-03-05T02:08:53;41.85;;;16.17;;
24557;SDS011;12726;49.148;8.582;2023-03-05T02:11:39;40.75;;;15.52;;
24557;SDS011;12726;49.148;8.582;2023-03-05T02:14:25;39.72;;;15.55;;
24557;SDS011;12726;49.148;8.582;2023-03-05T02:17:11;43.28;;;15.82;;
24557;SDS011;12726;49.148;8.582;2023-03-05T02:20:02;39.72;;;15.32;;
24557;SDS011;12726;49.148;8.582;2023-03-05T02:22:54;39.17;;;15.85;;
24557;SDS011;12726;49.148;8.582;2023-03-05T02:25:40;41.83;;;16.05;;
24557;SDS011;12726;49.148;8.582;2023-03-05T02:28:27;38.53;;;15.75;;
24557;SDS011;12726;49.148;8.582;2023-03-05T02:31:17;42.45;;;15.52;;
24557;SDS011;12726;49.148;8.582;2023-03-05T02:34:04;36.58;;;15.88;;
24557;SDS011;12726;49.148;8.582;2023-03-05T02:36:50;40.80;;;15.32;;
24557;SDS011;12726;49.148;8.582;2023-03-05T02:39:39;43.05;;;16.55;;
24557;SDS011;12726;49.148;8.582;2023-03-05T02:42:25;41.10;;;14.95;;
24557;SDS011;12726;49.148;8.582;2023-03-05T02:45:11;40.05;;;15.77;;
24557;SDS011;12726;49.148;8.582;2023-03-05T02:47:56;35.58;;;15.57;;
24557;SDS011;12726;49.148;8.582;2023-03-05T02:50:41;43.20;;;15.23;;
24557;SDS011;12726;49.148;8.582;2023-03-05T02:53:28;38.92;;;15.57;;
24557;SDS011;12726;49.148;8.582;2023-03-05T02:56:15;38.70;;;15.20;;
24557;SDS011;12726;49.148;8.582;2023-03-05T02:59:00;36.13;;;14.63;;
24557;SDS011;12726;49.148;8.582;2023-03-05T03:01:45;37.15;;;14.95;;
24557;SDS011;12726;49.148;8.582;2023-03-05T03:04:31;38.65;;;15.18;;
24557;SDS011;12726;49.148;8.582;2023-03-05T03:07:16;42.30;;;15.27;;
24557;SDS011;12726;49.148;8.582;2023-03-05T03:10:02;41.65;;;15.60;;
24557;SDS011;12726;49.148;8.582;2023-03-05T03:12:49;43.75;;;15.43;;
24557;SDS011;12726;49.148;8.582;2023-03-05T03:15:34;37.58;;;14.68;;
24557;SDS011;12726;49.148;8.582;2023-03-05T03:18:21;33.53;;;15.38;;
24557;SDS011;12726;49.148;8.582;2023-03-05T03:21:07;41.15;;;15.82;;
24557;SDS011;12726;49.148;8.582;2023-03-05T03:23:52;36.63;;;14.40;;
24557;SDS011;12726;49.148;8.582;2023-03-05T03:26:37;39.90;;;16.13;;
24557;SDS011;12726;49.148;8.582;2023-03-05T03:29:24;47.03;;;17.05;;
24557;SDS011;12726;49.148;8.582;2023-03-05T03:32:10;37.75;;;14.63;;
24557;SDS011;12726;49.148;8.582;2023-03-05T03:34:55;40.33;;;15.98;;
24557;SDS011;12726;49.148;8.582;2023-03-05T03:37:41;36.97;;;15.13;;
24557;SDS011;12726;49.148;8.582;2023-03-05T03:40:26;39.65;;;14.88;;
24557;SDS011;12726;49.148;8.582;2023-03-05T03:43:12;41.28;;;15.23;;
24557;SDS011;12726;49.148;8.582;2023-03-05T03:45:58;36.83;;;14.77;;
24557;SDS011;12726;49.148;8.582;2023-03-05T03:48:44;37.50;;;16.00;;
24557;SDS011;12726;49.148;8.582;2023-03-05T03:51:33;36.45;;;14.02;;
24557;SDS011;12726;49.148;8.582;2023-03-05T03:54:19;37.37;;;14.80;;
24557;SDS011;12726;49.148;8.582;2023-03-05T03:57:05;42.60;;;15.85;;
24557;SDS011;12726;49.148;8.582;2023-03-05T03:59:51;41.85;;;15.80;;
24557;SDS011;12726;49.148;8.582;2023-03-05T04:02:38;39.33;;;15.07;;
24557;SDS011;12726;49.148;8.582;2023-03-05T04:05:23;38.88;;;15.90;;
24557;SDS011;12726;49.148;8.582;2023-03-05T04:08:09;44.65;;;15.35;;
24557;SDS011;12726;49.148;8.582;2023-03-05T04:10:55;39.03;;;14.65;;
24557;SDS011;12726;49.148;8.582;2023-03-05T04:13:41;37.15;;;14.27;;
24557;SDS011;12726;49.148;8.582;2023-03-05T04:16:26;39.58;;;14.43;;
24557;SDS011;12726;49.148;8.582;2023-03-05T04:19:13;39.08;;;15.38;;
24557;SDS011;12726;49.148;8.582;2023-03-05T04:21:58;38.22;;;15.60;;
24557;SDS011;12726;49.148;8.582;2023-03-05T04:24:44;34.75;;;13.38;;
24557;SDS011;12726;49.148;8.582;2023-03-05T04:27:29;40.25;;;15.32;;
24557;SDS011;12726;49.148;8.582;2023-03-05T04:30:18;37.88;;;13.88;;
24557;SDS011;12726;49.148;8.582;2023-03-05T04:33:04;44.95;;;16.30;;
24557;SDS011;12726;49.148;8.582;2023-03-05T04:35:51;40.58;;;15.48;;
24557;SDS011;12726;49.148;8.582;2023-03-05T04:38:36;35.80;;;14.90;;
24557;SDS011;12726;49.148;8.582;2023-03-05T04:41:21;41.00;;;15.48;;
24557;SDS011;12726;49.148;8.582;2023-03-05T04:44:06;44.80;;;15.77;;
24557;SDS011;12726;49.148;8.582;2023-03-05T04:46:52;43.95;;;16.02;;
24557;SDS011;12726;49.148;8.582;2023-03-05T04:49:37;40.75;;;15.05;;
24557;SDS011;12726;49.148;8.582;2023-03-05T04:52:24;35.13;;;15.15;;
24557;SDS011;12726;49.148;8.582;2023-03-05T04:55:11;37.70;;;15.77;;
24557;SDS011;12726;49.148;8.582;2023-03-05T04:57:57;46.00;;;15.98;;
24557;SDS011;12726;49.148;8.582;2023-03-05T05:00:43;37.60;;;14.68;;
24557;SDS011;12726;49.148;8.582;2023-03-05T05:03:28;39.20;;;14.68;;
24557;SDS011;12726;49.148;8.582;2023-03-05T05:06:14;37.58;;;14.80;;
24557;SDS011;12726;49.148;8.582;2023-03-05T05:09:01;36.33;;;15.10;;
24557;SDS011;12726;49.148;8.582;2023-03-05T05:11:46;39.65;;;15.50;;
24557;SDS011;12726;49.148;8.582;2023-03-05T05:14:32;34.17;;;14.48;;
24557;SDS011;12726;49.148;8.582;2023-03-05T05:17:18;41.97;;;16.02;;
24557;SDS011;12726;49.148;8.582;2023-03-05T05:20:04;38.70;;;15.75;;
24557;SDS011;12726;49.148;8.582;2023-03-05T05:22:50;42.78;;;15.30;;
24557;SDS011;12726;49.148;8.582;2023-03-05T05:25:37;36.15;;;14.98;;
24557;SDS011;12726;49.148;8.582;2023-03-05T05:28:22;39.30;;;15.05;;
24557;SDS011;12726;49.148;8.582;2023-03-05T05:31:08;46.58;;;16.10;;
24557;SDS011;12726;49.148;8.582;2023-03-05T05:33:54;45.63;;;16.45;;
24557;SDS011;12726;49.148;8.582;2023-03-05T05:36:39;40.38;;;15.57;;
24557;SDS011;12726;49.148;8.582;2023-03-05T05:39:24;45.42;;;15.85;;
24557;SDS011;12726;49.148;8.582;2023-03-05T05:42:11;44.15;;;15.57;;
24557;SDS011;12726;49.148;8.582;2023-03-05T05:44:57;36.40;;;14.45;;
24557;SDS011;12726;49.148;8.582;2023-03-05T05:47:44;37.33;;;15.73;;
24557;SDS011;12726;49.148;8.582;2023-03-05T05:50:30;37.65;;;15.02;;
24557;SDS011;12726;49.148;8.582;2023-03-05T05:53:15;35.38;;;14.48;;
24557;SDS011;12726;49.148;8.582;2023-03-05T05:56:02;38.92;;;15.45;;
24557;SDS011;12726;49.148;8.582;2023-03-05T05:58:49;38.55;;;14.13;;
24557;SDS011;12726;49.148;8.582;2023-03-05T06:01:35;40.10;;;15.63;;
24557;SDS011;12726;49.148;8.582;2023-03-05T06:04:21;35.72;;;14.40;;
24557;SDS011;12726;49.148;8.582;2023-03-05T06:07:06;40.85;;;15.52;;
24557;SDS011;12726;49.148;8.582;2023-03-05T06:09:52;40.58;;;15.23;;
24557;SDS011;12726;49.148;8.582;2023-03-05T06:12:37;41.63;;;15.27;;
24557;SDS011;12726;49.148;8.582;2023-03-05T06:15:24;39.58;;;15.43;;
24557;SDS011;12726;49.148;8.582;2023-03-05T06:18:09;40.03;;;15.27;;
24557;SDS011;12726;49.148;8.582;2023-03-05T06:20:55;40.50;;;14.95;;
24557;SDS011;12726;49.148;8.582;2023-03-05T06:23:41;40.20;;;16.23;;
24557;SDS011;12726;49.148;8.582;2023-03-05T06:26:26;36.85;;;14.73;;
24557;SDS011;12726;49.148;8.582;2023-03-05T06:29:12;42.33;;;15.93;;
24557;SDS011;12726;49.148;8.582;2023-03-05T06:31:59;38.33;;;14.95;;
24557;SDS011;12726;49.148;8.582;2023-03-05T06:34:44;35.50;;;14.68;;
24557;SDS011;12726;49.148;8.582;2023-03-05T06:37:29;38.60;;;15.45;;
24557;SDS011;12726;49.148;8.582;2023-03-05T06:40:14;41.85;;;16.38;;
24557;SDS011;12726;49.148;8.582;2023-03-05T06:43:00;38.70;;;15.55;;
24557;SDS011;12726;49.148;8.582;2023-03-05T06:45:45;36.58;;;15.60;;
24557;SDS011;12726;49.148;8.582;2023-03-05T06:51:24;40.67;;;15.27;;
24557;SDS011;12726;49.148;8.582;2023-03-05T06:54:13;35.67;;;15.00;;
24557;SDS011;12726;49.148;8.582;2023-03-05T06:56:59;40.22;;;15.77;;
24557;SDS011;12726;49.148;8.582;2023-03-05T06:59:45;36.90;;;15.00;;
24557;SDS011;12726;49.148;8.582;2023-03-05T07:02:30;38.75;;;14.27;;
24557;SDS011;12726;49.148;8.582;2023-03-05T07:05:15;41.53;;;15.82;;
24557;SDS011;12726;49.148;8.582;2023-03-05T07:08:02;35.85;;;15.43;;
24557;SDS011;12726;49.148;8.582;2023-03-05T07:10:48;39.95;;;16.38;;
24557;SDS011;12726;49.148;8.582;2023-03-05T07:13:33;41.25;;;16.15;;
24557;SDS011;12726;49.148;8.582;2023-03-05T07:16:20;43.78;;;17.23;;
24557;SDS011;12726;49.148;8.582;2023-03-05T07:19:07;37.95;;;15.93;;
24557;SDS011;12726;49.148;8.582;2023-03-05T07:21:53;41.33;;;16.65;;
24557;SDS011;12726;49.148;8.582;2023-03-05T07:24:40;41.15;;;16.80;;
24557;SDS011;12726;49.148;8.582;2023-03-05T07:27:25;47.55;;;17.20;;
24557;SDS011;12726;49.148;8.582;2023-03-05T07:30:11;46.20;;;17.50;;
24557;SDS011;12726;49.148;8.582;2023-03-05T07:32:57;39.55;;;17.08;;
24557;SDS011;12726;49.148;8.582;2023-03-05T07:35:42;37.03;;;16.73;;
24557;SDS011;12726;49.148;8.582;2023-03-05T07:38:28;40.92;;;15.90;;
24557;SDS011;12726;49.148;8.582;2023-03-05T07:41:15;40.05;;;16.83;;
24557;SDS011;12726;49.148;8.582;2023-03-05T07:44:03;39.88;;;17.20;;
24557;SDS011;12726;49.148;8.582;2023-03-05T07:46:49;46.60;;;16.95;;
24557;SDS011;12726;49.148;8.582;2023-03-05T07:49:34;39.20;;;16.25;;
24557;SDS011;12726;49.148;8.582;2023-03-05T07:52:20;42.72;;;16.67;;
24557;SDS011;12726;49.148;8.582;2023-03-05T07:55:05;41.80;;;16.90;;
24557;SDS011;12726;49.148;8.582;2023-03-05T07:57:52;39.40;;;16.42;;
24557;SDS011;12726;49.148;8.582;2023-03-05T08:00:37;38.42;;;16.00;;
24557;SDS011;12726;49.148;8.582;2023-03-05T08:03:23;44.47;;;16.90;;
24557;SDS011;12726;49.148;8.582;2023-03-05T08:06:10;36.30;;;17.50;;
24557;SDS011;12726;49.148;8.582;2023-03-05T08:08:56;44.83;;;16.08;;
24557;SDS011;12726;49.148;8.582;2023-03-05T08:11:42;41.53;;;17.80;;
24557;SDS011;12726;49.148;8.582;2023-03-05T08:14:30;38.05;;;17.10;;
24557;SDS011;12726;49.148;8.582;2023-03-05T08:17:15;46.50;;;17.35;;
24557;SDS011;12726;49.148;8.582;2023-03-05T08:20:01;37.75;;;16.30;;
24557;SDS011;12726;49.148;8.582;2023-03-05T08:22:48;41.38;;;17.48;;
24557;SDS011;12726;49.148;8.582;2023-03-05T08:25:33;43.10;;;16.23;;
24557;SDS011;12726;49.148;8.582;2023-03-05T08:28:18;41.38;;;16.85;;
24557;SDS011;12726;49.148;8.582;2023-03-05T08:31:08;36.40;;;15.93;;
24557;SDS011;12726;49.148;8.582;2023-03-05T08:33:55;36.63;;;16.73;;
24557;SDS011;12726;49.148;8.582;2023-03-05T08:36:41;39.28;;;16.65;;
24557;SDS011;12726;49.148;8.582;2023-03-05T08:39:26;37.35;;;14.85;;
24557;SDS011;12726;49.148;8.582;2023-03-05T08:42:12;40.70;;;16.15;;
24557;SDS011;12726;49.148;8.582;2023-03-05T08:44:58;37.55;;;15.85;;
24557;SDS011;12726;49.148;8.582;2023-03-05T08:47:44;39.95;;;16.38;;
24557;SDS011;12726;49.148;8.582;2023-03-05T08:50:30;35.33;;;15.77;;
24557;SDS011;12726;49.148;8.582;2023-03-05T08:53:15;37.70;;;16.10;;
24557;SDS011;12726;49.148;8.582;2023-03-05T08:56:01;31.00;;;15.43;;
24557;SDS011;12726;49.148;8.582;2023-03-05T08:58:46;36.05;;;16.13;;
24557;SDS011;12726;49.148;8.582;2023-03-05T09:01:32;35.65;;;15.05;;
24557;SDS011;12726;49.148;8.582;2023-03-05T09:04:18;33.33;;;14.98;;
24557;SDS011;12726;49.148;8.582;2023-03-05T09:07:04;30.85;;;14.65;;
24557;SDS011;12726;49.148;8.582;2023-03-05T09:09:49;33.58;;;14.25;;
24557;SDS011;12726;49.148;8.582;2023-03-05T09:12:35;31.10;;;13.80;;
24557;SDS011;12726;49.148;8.582;2023-03-05T09:15:20;29.15;;;13.52;;
24557;SDS011;12726;49.148;8.582;2023-03-05T09:18:05;29.58;;;12.90;;
24557;SDS011;12726;49.148;8.582;2023-03-05T09:20:53;29.08;;;12.55;;
24557;SDS011;12726;49.148;8.582;2023-03-05T09:23:39;29.08;;;12.57;;
24557;SDS011;12726;49.148;8.582;2023-03-05T09:26:25;27.83;;;13.68;;
24557;SDS011;12726;49.148;8.582;2023-03-05T09:29:10;26.80;;;12.13;;
24557;SDS011;12726;49.148;8.582;2023-03-05T09:31:56;27.73;;;13.93;;
24557;SDS011;12726;49.148;8.582;2023-03-05T09:34:41;23.60;;;10.48;;
24557;SDS011;12726;49.148;8.582;2023-03-05T09:37:28;19.42;;;9.18;;
24557;SDS011;12726;49.148;8.582;2023-03-05T09:40:14;20.63;;;10.43;;
24557;SDS011;12726;49.148;8.582;2023-03-05T09:43:02;22.25;;;10.88;;
24557;SDS011;12726;49.148;8.582;2023-03-05T09:45:56;20.95;;;10.05;;
24557;SDS011;12726;49.148;8.582;2023-03-05T09:48:48;20.52;;;10.32;;
24557;SDS011;12726;49.148;8.582;2023-03-05T09:51:36;24.73;;;11.68;;
24557;SDS011;12726;49.148;8.582;2023-03-05T09:54:26;23.92;;;9.77;;
24557;SDS011;12726;49.148;8.582;2023-03-05T09:57:17;21.48;;;10.90;;
24557;SDS011;12726;49.148;8.582;2023-03-05T10:00:13;20.48;;;9.73;;
24557;SDS011;12726;49.148;8.582;2023-03-05T10:03:05;16.80;;;9.32;;
24557;SDS011;12726;49.148;8.582;2023-03-05T10:08:50;18.67;;;9.18;;
24557;SDS011;12726;49.148;8.582;2023-03-05T10:11:41;17.70;;;8.93;;
24557;SDS011;12726;49.148;8.582;2023-03-05T10:14:32;18.80;;;8.73;;
24557;SDS011;12726;49.148;8.582;2023-03-05T10:17:35;18.55;;;9.55;;
24557;SDS011;12726;49.148;8.582;2023-03-05T10:20:52;20.48;;;9.07;;
24557;SDS011;12726;49.148;8.582;2023-03-05T10:23:51;19.52;;;8.75;;
24557;SDS011;12726;49.148;8.582;2023-03-05T10:26:48;16.52;;;8.95;;
24557;SDS011;12726;49.148;8.582;2023-03-05T10:29:48;18.42;;;8.90;;
24557;SDS011;12726;49.148;8.582;2023-03-05T10:32:43;17.42;;;8.60;;
24557;SDS011;12726;49.148;8.582;2023-03-05T10:41:57;14.98;;;7.93;;
24557;SDS011;12726;49.148;8.582;2023-03-05T10:44:49;16.35;;;8.40;;
24557;SDS011;12726;49.148;8.582;2023-03-05T10:47:39;18.23;;;8.70;;
24557;SDS011;12726;49.148;8.582;2023-03-05T10:50:30;15.98;;;8.30;;
24557;SDS011;12726;49.148;8.582;2023-03-05T10:53:22;15.57;;;7.25;;
24557;SDS011;12726;49.148;8.582;2023-03-05T10:56:11;12.57;;;5.90;;
24557;SDS011;12726;49.148;8.582;2023-03-05T10:58:58;12.48;;;6.25;;
24557;SDS011;12726;49.148;8.582;2023-03-05T11:01:45;12.43;;;6.55;;
24557;SDS011;12726;49.148;8.582;2023-03-05T11:04:46;15.57;;;7.15;;
24557;SDS011;12726;49.148;8.582;2023-03-05T11:07:34;12.18;;;5.45;;
24557;SDS011;12726;49.148;8.582;2023-03-05T11:10:21;12.93;;;6.10;;
24557;SDS011;12726;49.148;8.582;2023-03-05T11:13:17;11.50;;;5.78;;
24557;SDS011;12726;49.148;8.582;2023-03-05T11:16:13;14.82;;;5.88;;
24557;SDS011;12726;49.148;8.582;2023-03-05T11:19:11;10.27;;;5.13;;
24557;SDS011;12726;49.148;8.582;2023-03-05T11:22:06;12.73;;;5.95;;
24557;SDS011;12726;49.148;8.582;2023-03-05T11:25:12;13.75;;;5.53;;
24557;SDS011;12726;49.148;8.582;2023-03-05T11:28:02;13.27;;;6.25;;
24557;SDS011;12726;49.148;8.582;2023-03-05T11:30:53;15.45;;;7.50;;
24557;SDS011;12726;49.148;8.582;2023-03-05T11:33:52;12.38;;;6.55;;
24557;SDS011;12726;49.148;8.582;2023-03-05T11:36:41;17.75;;;9.13;;
24557;SDS011;12726;49.148;8.582;2023-03-05T11:39:27;13.98;;;7.75;;
24557;SDS011;12726;49.148;8.582;2023-03-05T11:42:15;12.98;;;6.38;;
24557;SDS011;12726;49.148;8.582;2023-03-05T11:45:12;14.30;;;7.70;;
24557;SDS011;12726;49.148;8.582;2023-03-05T11:48:00;13.52;;;6.57;;
24557;SDS011;12726;49.148;8.582;2023-03-05T11:50:53;10.73;;;5.50;;
24557;SDS011;12726;49.148;8.582;2023-03-05T11:53:42;11.35;;;5.28;;
24557;SDS011;12726;49.148;8.582;2023-03-05T11:56:32;11.20;;;5.88;;
24557;SDS011;12726;49.148;8.582;2023-03-05T11:59:21;10.70;;;5.68;;
24557;SDS011;12726;49.148;8.582;2023-03-05T12:02:15;10.57;;;5.00;;
24557;SDS011;12726;49.148;8.582;2023-03-05T12:05:05;12.73;;;5.57;;
24557;SDS011;12726;49.148;8.582;2023-03-05T12:07:54;11.65;;;5.78;;
24557;SDS011;12726;49.148;8.582;2023-03-05T12:10:43;13.30;;;5.60;;
24557;SDS011;12726;49.148;8.582;2023-03-05T12:13:30;10.20;;;5.63;;
24557;SDS011;12726;49.148;8.582;2023-03-05T12:16:22;12.73;;;6.03;;
24557;SDS011;12726;49.148;8.582;2023-03-05T12:19:18;11.20;;;5.77;;
24557;SDS011;12726;49.148;8.582;2023-03-05T12:22:18;10.48;;;5.22;;
24557;SDS011;12726;49.148;8.582;2023-03-05T12:25:20;12.65;;;6.00;;
24557;SDS011;12726;49.148;8.582;2023-03-05T12:28:10;14.07;;;5.63;;
24557;SDS011;12726;49.148;8.582;2023-03-05T12:30:58;11.32;;;5.47;;
24557;SDS011;12726;49.148;8.582;2023-03-05T12:33:44;12.20;;;5.07;;
24557;SDS011;12726;49.148;8.582;2023-03-05T12:36:34;11.10;;;5.43;;
24557;SDS011;12726;49.148;8.582;2023-03-05T12:42:52;14.18;;;5.55;;
24557;SDS011;12726;49.148;8.582;2023-03-05T12:45:39;11.80;;;5.88;;
24557;SDS011;12726;49.148;8.582;2023-03-05T12:48:41;11.27;;;5.25;;
24557;SDS011;12726;49.148;8.582;2023-03-05T12:51:29;11.02;;;5.90;;
24557;SDS011;12726;49.148;8.582;2023-03-05T12:54:27;11.03;;;5.43;;
24557;SDS011;12726;49.148;8.582;2023-03-05T12:57:16;10.68;;;5.25;;
24557;SDS011;12726;49.148;8.582;2023-03-05T13:00:05;10.93;;;5.07;;
24557;SDS011;12726;49.148;8.582;2023-03-05T13:02:59;12.70;;;5.55;;
24557;SDS011;12726;49.148;8.582;2023-03-05T13:05:48;14.75;;;6.45;;
24557;SDS011;12726;49.148;8.582;2023-03-05T13:08:35;13.73;;;6.28;;
24557;SDS011;12726;49.148;8.582;2023-03-05T13:11:21;11.13;;;5.68;;
24557;SDS011;12726;49.148;8.582;2023-03-05T13:14:17;13.75;;;5.95;;
24557;SDS011;12726;49.148;8.582;2023-03-05T13:17:30;10.77;;;5.32;;
24557;SDS011;12726;49.148;8.582;2023-03-05T13:20:23;14.25;;;5.75;;
24557;SDS011;12726;49.148;8.582;2023-03-05T13:23:13;10.98;;;5.85;;
24557;SDS011;12726;49.148;8.582;2023-03-05T13:26:02;14.35;;;6.78;;
24557;SDS011;12726;49.148;8.582;2023-03-05T13:31:58;10.80;;;5.72;;
24557;SDS011;12726;49.148;8.582;2023-03-05T13:34:47;13.60;;;6.10;;
24557;SDS011;12726;49.148;8.582;2023-03-05T13:37:34;13.60;;;6.10;;
24557;SDS011;12726;49.148;8.582;2023-03-05T13:40:22;10.27;;;5.80;;
24557;SDS011;12726;49.148;8.582;2023-03-05T13:43:09;13.55;;;5.90;;
24557;SDS011;12726;49.148;8.582;2023-03-05T13:45:56;12.98;;;5.75;;
24557;SDS011;12726;49.148;8.582;2023-03-05T13:48:42;10.07;;;5.53;;
24557;SDS011;12726;49.148;8.582;2023-03-05T13:51:41;11.13;;;5.20;;
24557;SDS011;12726;49.148;8.582;2023-03-05T13:54:26;10.57;;;5.47;;
24557;SDS011;12726;49.148;8.582;2023-03-05T13:57:30;11.13;;;5.22;;
24557;SDS011;12726;49.148;8.582;2023-03-05T14:00:30;9.38;;;4.68;;
24557;SDS011;12726;49.148;8.582;2023-03-05T14:03:20;14.50;;;5.28;;
24557;SDS011;12726;49.148;8.582;2023-03-05T14:06:08;8.50;;;4.43;;
24557;SDS011;12726;49.148;8.582;2023-03-05T14:09:00;8.55;;;4.35;;
24557;SDS011;12726;49.148;8.582;2023-03-05T14:11:53;9.93;;;4.60;;
24557;SDS011;12726;49.148;8.582;2023-03-05T14:14:40;8.88;;;4.80;;
24557;SDS011;12726;49.148;8.582;2023-03-05T14:17:33;10.75;;;5.60;;
24557;SDS011;12726;49.148;8.582;2023-03-05T14:20:22;11.43;;;5.22;;
24557;SDS011;12726;49.148;8.582;2023-03-05T14:23:23;7.55;;;4.28;;
24557;SDS011;12726;49.148;8.582;2023-03-05T14:26:14;8.82;;;4.50;;
24557;SDS011;12726;49.148;8.582;2023-03-05T14:29:11;9.35;;;5.13;;
24557;SDS011;12726;49.148;8.582;2023-03-05T14:32:02;12.13;;;5.22;;
24557;SDS011;12726;49.148;8.582;2023-03-05T14:34:49;11.55;;;5.15;;
24557;SDS011;12726;49.148;8.582;2023-03-05T14:37:39;11.85;;;5.90;;
24557;SDS011;12726;49.148;8.582;2023-03-05T14:40:28;8.80;;;4.47;;
24557;SDS011;12726;49.148;8.582;2023-03-05T14:43:16;9.27;;;5.40;;
24557;SDS011;12726;49.148;8.582;2023-03-05T14:46:01;9.82;;;4.75;;
24557;SDS011;12726;49.148;8.582;2023-03-05T14:48:46;8.75;;;4.30;;
24557;SDS011;12726;49.148;8.582;2023-03-05T14:51:32;9.35;;;4.35;;
24557;SDS011;12726;49.148;8.582;2023-03-05T14:54:24;7.10;;;4.40;;
24557;SDS011;12726;49.148;8.582;2023-03-05T14:57:11;8.05;;;4.78;;
24557;SDS011;12726;49.148;8.582;2023-03-05T15:00:02;8.65;;;4.20;;
24557;SDS011;12726;49.148;8.582;2023-03-05T15:02:48;9.15;;;3.83;;
24557;SDS011;12726;49.148;8.582;2023-03-05T15:05:35;5.85;;;3.47;;
24557;SDS011;12726;49.148;8.582;2023-03-05T15:08:21;4.43;;;3.22;;
24557;SDS011;12726;49.148;8.582;2023-03-05T15:11:08;7.90;;;3.50;;
24557;SDS011;12726;49.148;8.582;2023-03-05T15:13:54;7.22;;;4.10;;
24557;SDS011;12726;49.148;8.582;2023-03-05T15:16:41;9.18;;;3.60;;
24557;SDS011;12726;49.148;8.582;2023-03-05T15:19:28;6.38;;;3.40;;
24557;SDS011;12726;49.148;8.582;2023-03-05T15:22:13;6.45;;;3.55;;
24557;SDS011;12726;49.148;8.582;2023-03-05T15:24:59;6.05;;;3.78;;
24557;SDS011;12726;49.148;8.582;2023-03-05T15:27:44;8.05;;;3.70;;
24557;SDS011;12726;49.148;8.582;2023-03-05T15:30:31;5.93;;;2.95;;
24557;SDS011;12726;49.148;8.582;2023-03-05T15:33:19;5.22;;;2.63;;
24557;SDS011;12726;49.148;8.582;2023-03-05T15:36:06;6.65;;;3.40;;
24557;SDS011;12726;49.148;8.582;2023-03-05T15:38:52;6.32;;;3.75;;
24557;SDS011;12726;49.148;8.582;2023-03-05T15:41:37;6.28;;;3.05;;
24557;SDS011;12726;49.148;8.582;2023-03-05T15:44:23;5.80;;;2.92;;
24557;SDS011;12726;49.148;8.582;2023-03-05T15:47:08;6.30;;;3.75;;
24557;SDS011;12726;49.148;8.582;2023-03-05T15:49:55;5.70;;;3.33;;
24557;SDS011;12726;49.148;8.582;2023-03-05T15:52:41;6.07;;;3.67;;
24557;SDS011;12726;49.148;8.582;2023-03-05T15:55:26;5.85;;;3.35;;
24557;SDS011;12726;49.148;8.582;2023-03-05T15:58:12;7.60;;;3.47;;
24557;SDS011;12726;49.148;8.582;2023-03-05T16:00:58;5.70;;;3.50;;
24557;SDS011;12726;49.148;8.582;2023-03-05T16:03:44;5.70;;;2.75;;
24557;SDS011;12726;49.148;8.582;2023-03-05T16:06:30;5.30;;;2.80;;
24557;SDS011;12726;49.148;8.582;2023-03-05T16:09:17;6.90;;;3.72;;
24557;SDS011;12726;49.148;8.582;2023-03-05T16:12:06;6.72;;;4.20;;
24557;SDS011;12726;49.148;8.582;2023-03-05T16:14:55;6.15;;;3.10;;
24557;SDS011;12726;49.148;8.582;2023-03-05T16:17:40;6.20;;;2.95;;
24557;SDS011;12726;49.148;8.582;2023-03-05T16:20:27;4.30;;;2.72;;
24557;SDS011;12726;49.148;8.582;2023-03-05T16:23:14;10.95;;;4.53;;
24557;SDS011;12726;49.148;8.582;2023-03-05T16:26:00;11.70;;;5.80;;
24557;SDS011;12726;49.148;8.582;2023-03-05T16:28:45;11.63;;;6.20;;
24557;SDS011;12726;49.148;8.582;2023-03-05T16:31:31;11.80;;;6.40;;
24557;SDS011;12726;49.148;8.582;2023-03-05T16:34:18;14.15;;;7.88;;
24557;SDS011;12726;49.148;8.582;2023-03-05T16:37:03;16.80;;;7.35;;
24557;SDS011;12726;49.148;8.582;2023-03-05T16:39:50;18.60;;;8.05;;
24557;SDS011;12726;49.148;8.582;2023-03-05T16:42:36;18.08;;;9.27;;
24557;SDS011;12726;49.148;8.582;2023-03-05T16:45:21;19.88;;;8.82;;
24557;SDS011;12726;49.148;8.582;2023-03-05T16:48:07;16.73;;;8.77;;
24557;SDS011;12726;49.148;8.582;2023-03-05T16:50:52;16.00;;;8.90;;